createdAt,value
2022-09-17T00:01:31.473Z,11.23
2022-09-17T00:04:04.481Z,11.20
2022-09-17T00:06:36.071Z,9.45
2022-09-17T00:09:07.860Z,9.02
2022-09-17T00:11:38.938Z,9.38
2022-09-17T00:14:10.224Z,9.10
2022-09-17T00:16:41.712Z,10.85
2022-09-17T00:19:21.457Z,11.15
2022-09-17T00:21:51.565Z,11.07
2022-09-17T00:24:20.780Z,10.30
2022-09-17T00:26:49.652Z,9.10
2022-09-17T00:29:17.312Z,8.45
2022-09-17T00:31:46.831Z,9.20
2022-09-17T00:34:14.176Z,6.75
2022-09-17T00:36:41.730Z,7.03
2022-09-17T00:39:12.047Z,6.30
2022-09-17T00:41:40.262Z,6.13
2022-09-17T00:44:39.495Z,7.53
2022-09-17T00:47:35.352Z,8.88
2022-09-17T00:50:17.634Z,8.77
2022-09-17T00:52:51.691Z,8.50
2022-09-17T00:55:24.616Z,8.60
2022-09-17T00:57:56.509Z,7.93
2022-09-17T01:00:24.036Z,7.53
2022-09-17T01:02:54.357Z,9.05
2022-09-17T01:06:05.895Z,10.65
2022-09-17T01:08:50.277Z,9.88
2022-09-17T01:11:48.217Z,12.68
2022-09-17T01:14:52.352Z,11.30
2022-09-17T01:18:09.434Z,14.75
2022-09-17T01:21:21.792Z,18.20
2022-09-17T01:24:22.658Z,15.85
2022-09-17T01:27:27.521Z,14.65
2022-09-17T01:30:22.740Z,15.65
2022-09-17T01:33:21.522Z,11.98
2022-09-17T01:35:55.641Z,14.63
2022-09-17T01:38:39.488Z,14.23
2022-09-17T01:42:02.282Z,13.90
2022-09-17T01:44:40.722Z,14.45
2022-09-17T01:47:23.129Z,12.90
2022-09-17T01:50:03.149Z,11.43
2022-09-17T01:52:35.997Z,12.13
2022-09-17T01:55:11.485Z,11.82
2022-09-17T01:57:54.167Z,12.20
2022-09-17T02:00:22.554Z,13.27
2022-09-17T02:03:15.025Z,12.40
2022-09-17T02:05:54.370Z,15.00
2022-09-17T02:08:27.069Z,11.73
2022-09-17T02:11:11.162Z,13.60
2022-09-17T02:13:56.243Z,13.00
2022-09-17T02:16:34.122Z,14.63
2022-09-17T02:19:23.509Z,12.57
2022-09-17T02:22:23.869Z,15.90
2022-09-17T02:25:01.031Z,15.75
2022-09-17T02:28:03.700Z,11.95
2022-09-17T02:30:32.315Z,12.93
2022-09-17T02:33:04.968Z,11.43
2022-09-17T02:35:33.406Z,15.13
2022-09-17T02:38:01.327Z,11.10
2022-09-17T02:40:41.509Z,11.65
2022-09-17T02:43:23.985Z,11.55
2022-09-17T02:46:35.903Z,10.40
2022-09-17T02:49:50.196Z,13.02
2022-09-17T02:52:41.918Z,13.32
2022-09-17T02:55:26.921Z,10.60
2022-09-17T02:58:05.763Z,15.13
2022-09-17T03:00:34.150Z,15.80
2022-09-17T03:03:40.835Z,14.43
2022-09-17T03:06:08.499Z,13.18
2022-09-17T03:08:40.519Z,13.68
2022-09-17T03:11:10.383Z,15.25
2022-09-17T03:13:37.871Z,16.42
2022-09-17T03:16:07.237Z,15.73
2022-09-17T03:18:34.624Z,15.02
2022-09-17T03:21:02.227Z,13.77
2022-09-17T03:23:29.538Z,14.40
2022-09-17T03:25:56.813Z,13.73
2022-09-17T03:28:26.603Z,14.18
2022-09-17T03:30:54.408Z,15.80
2022-09-17T03:33:22.091Z,14.13
2022-09-17T03:35:49.553Z,14.23
2022-09-17T03:38:17.250Z,11.73
2022-09-17T03:40:44.478Z,15.43
2022-09-17T03:43:11.911Z,13.35
2022-09-17T03:45:39.098Z,11.13
2022-09-17T03:48:06.295Z,12.02
2022-09-17T03:50:33.839Z,14.90
2022-09-17T03:53:01.001Z,12.10
2022-09-17T03:55:28.230Z,13.63
2022-09-17T03:57:56.415Z,13.02
2022-09-17T04:00:25.464Z,13.18
2022-09-17T04:02:52.784Z,15.13
2022-09-17T04:05:20.314Z,14.75
2022-09-17T04:07:47.536Z,12.48
2022-09-17T04:10:14.848Z,16.27
2022-09-17T04:12:42.201Z,14.30
2022-09-17T04:15:10.007Z,14.93
2022-09-17T04:17:37.256Z,13.57
2022-09-17T04:20:06.540Z,13.85
2022-09-17T04:22:34.030Z,11.38
2022-09-17T04:25:01.359Z,11.95
2022-09-17T04:27:28.728Z,11.82
2022-09-17T04:29:55.881Z,12.88
2022-09-17T04:32:23.042Z,13.50
2022-09-17T04:34:50.466Z,12.05
2022-09-17T04:37:17.596Z,13.13
2022-09-17T04:39:44.750Z,12.82
2022-09-17T04:42:12.101Z,13.05
2022-09-17T04:44:39.256Z,14.73
2022-09-17T04:47:06.832Z,15.57
2022-09-17T04:49:34.265Z,13.02
2022-09-17T04:52:01.671Z,10.88
2022-09-17T04:54:28.871Z,13.63
2022-09-17T04:56:56.286Z,15.02
2022-09-17T04:59:23.840Z,15.15
2022-09-17T05:01:51.183Z,14.80
2022-09-17T05:04:18.855Z,14.90
2022-09-17T05:06:45.984Z,14.32
2022-09-17T05:09:14.127Z,14.00
2022-09-17T05:11:42.016Z,15.93
2022-09-17T05:14:09.466Z,17.38
2022-09-17T05:16:36.654Z,14.65
2022-09-17T05:19:04.291Z,12.52
2022-09-17T05:21:31.796Z,11.98
2022-09-17T05:23:59.067Z,14.45
2022-09-17T05:26:26.452Z,11.43
2022-09-17T05:28:53.791Z,14.25
2022-09-17T05:31:21.222Z,12.68
2022-09-17T05:33:48.577Z,13.48
2022-09-17T05:36:15.759Z,13.77
2022-09-17T05:38:43.193Z,12.38
2022-09-17T05:41:10.659Z,14.18
2022-09-17T05:43:37.801Z,13.38
2022-09-17T05:46:07.179Z,11.98
2022-09-17T05:48:34.649Z,11.70
2022-09-17T05:51:02.156Z,13.27
2022-09-17T05:53:29.313Z,11.20
2022-09-17T05:55:58.766Z,13.73
2022-09-17T05:58:27.178Z,11.57
2022-09-17T06:00:54.334Z,10.05
2022-09-17T06:03:24.832Z,11.38
2022-09-17T06:05:58.727Z,10.50
2022-09-17T06:08:29.000Z,8.68
2022-09-17T06:11:01.602Z,11.93
2022-09-17T06:13:29.886Z,10.00
2022-09-17T06:15:57.198Z,9.10
2022-09-17T06:18:24.463Z,8.65
2022-09-17T06:21:05.646Z,7.47
2022-09-17T06:23:35.405Z,9.00
2022-09-17T06:26:05.829Z,9.77
2022-09-17T06:28:35.765Z,7.43
2022-09-17T06:31:08.373Z,9.52
2022-09-17T06:33:36.555Z,7.90
2022-09-17T06:36:14.154Z,7.30
2022-09-17T06:38:42.778Z,6.72
2022-09-17T06:41:10.098Z,6.93
2022-09-17T06:43:37.362Z,8.98
2022-09-17T06:46:06.676Z,8.32
2022-09-17T06:48:35.933Z,8.20
2022-09-17T06:51:07.668Z,8.13
2022-09-17T06:53:38.205Z,9.27
2022-09-17T06:56:08.503Z,7.28
2022-09-17T06:58:37.648Z,5.80
2022-09-17T07:01:06.263Z,5.53
2022-09-17T07:03:34.800Z,6.80
2022-09-17T07:06:12.818Z,4.78
2022-09-17T07:08:40.097Z,6.38
2022-09-17T07:11:08.433Z,5.40
2022-09-17T07:13:36.219Z,6.68
2022-09-17T07:16:06.029Z,7.95
2022-09-17T07:18:34.004Z,5.60
2022-09-17T07:21:05.237Z,4.53
2022-09-17T07:23:35.751Z,4.18
2022-09-17T07:26:15.848Z,4.65
2022-09-17T07:28:44.154Z,3.90
2022-09-17T07:31:16.407Z,5.85
2022-09-17T07:33:45.008Z,3.65
2022-09-17T07:36:18.043Z,5.00
2022-09-17T07:38:45.798Z,5.25
2022-09-17T07:41:17.132Z,8.68
2022-09-17T07:43:45.317Z,5.97
2022-09-17T07:46:19.528Z,4.75
2022-09-17T07:48:48.716Z,6.60
2022-09-17T07:51:22.975Z,4.28
2022-09-17T07:53:56.247Z,4.28
2022-09-17T07:56:25.345Z,5.32
2022-09-17T07:58:53.112Z,3.97
2022-09-17T08:01:23.741Z,4.60
2022-09-17T08:03:54.072Z,2.72
2022-09-17T08:06:28.381Z,4.88
2022-09-17T08:08:57.606Z,3.75
2022-09-17T08:11:51.665Z,3.92
2022-09-17T08:14:16.619Z,3.28
2022-09-17T08:16:46.465Z,3.17
2022-09-17T08:19:13.813Z,4.68
2022-09-17T08:21:47.032Z,3.85
2022-09-17T08:24:14.397Z,3.63
2022-09-17T08:26:41.860Z,4.78
2022-09-17T08:29:10.571Z,3.38
2022-09-17T08:31:38.016Z,4.50
2022-09-17T08:34:09.954Z,2.58
2022-09-17T08:36:37.817Z,2.58
2022-09-17T08:39:05.278Z,4.68
2022-09-17T08:41:49.849Z,4.00
2022-09-17T08:44:25.647Z,3.33
2022-09-17T08:47:06.121Z,2.20
2022-09-17T08:49:44.035Z,3.78
2022-09-17T08:52:54.862Z,2.15
2022-09-17T08:55:40.380Z,1.20
2022-09-17T08:58:57.656Z,2.97
2022-09-17T09:01:39.763Z,1.58
2022-09-17T09:04:33.234Z,2.40
2022-09-17T09:07:20.137Z,1.85
2022-09-17T09:10:04.888Z,2.47
2022-09-17T09:12:37.284Z,1.45
2022-09-17T09:15:33.089Z,3.47
2022-09-17T09:18:18.060Z,3.00
2022-09-17T09:21:09.579Z,3.03
2022-09-17T09:23:56.925Z,2.75
2022-09-17T09:26:57.809Z,2.78
2022-09-17T09:29:50.420Z,4.25
2022-09-17T09:33:00.531Z,1.67
2022-09-17T09:35:32.728Z,3.55
2022-09-17T09:38:24.985Z,3.13
2022-09-17T09:41:03.983Z,4.10
2022-09-17T09:44:03.088Z,4.65
2022-09-17T09:46:49.095Z,5.38
2022-09-17T09:49:31.251Z,4.38
2022-09-17T09:52:48.948Z,3.97
2022-09-17T09:55:35.463Z,3.03
2022-09-17T09:58:40.015Z,4.35
2022-09-17T10:01:21.027Z,1.60
2022-09-17T10:03:52.757Z,2.30
2022-09-17T10:06:21.397Z,3.05
2022-09-17T10:08:57.355Z,2.22
2022-09-17T10:11:28.648Z,2.30
2022-09-17T10:14:33.673Z,2.65
2022-09-17T10:17:26.339Z,4.70
2022-09-17T10:20:06.136Z,3.28
2022-09-17T10:22:37.067Z,3.78
2022-09-17T10:25:18.681Z,3.50
2022-09-17T10:27:48.834Z,3.13
2022-09-17T10:30:19.154Z,3.75
2022-09-17T10:33:29.353Z,4.20
2022-09-17T10:36:11.633Z,3.80
2022-09-17T10:38:47.316Z,2.67
2022-09-17T10:41:25.070Z,2.65
2022-09-17T10:43:52.691Z,5.03
2022-09-17T10:46:34.183Z,2.08
2022-09-17T10:49:34.958Z,4.95
2022-09-17T10:52:14.894Z,5.55
2022-09-17T10:55:17.672Z,3.60
2022-09-17T10:58:07.484Z,2.70
2022-09-17T11:01:08.901Z,4.72
2022-09-17T11:04:19.435Z,3.60
2022-09-17T11:07:04.951Z,5.07
2022-09-17T11:10:22.233Z,3.75
2022-09-17T11:12:54.974Z,3.28
2022-09-17T11:15:52.897Z,3.25
2022-09-17T11:18:39.853Z,3.47
2022-09-17T11:21:31.723Z,5.18
2022-09-17T11:24:05.015Z,3.25
2022-09-17T11:27:10.061Z,2.85
2022-09-17T11:30:14.837Z,4.30
2022-09-17T11:33:08.268Z,3.03
2022-09-17T11:35:52.045Z,4.70
2022-09-17T11:38:45.377Z,24.13
2022-09-17T11:41:31.717Z,5.97
2022-09-17T11:44:31.694Z,4.63
2022-09-17T11:47:29.644Z,5.00
2022-09-17T11:50:10.224Z,2.42
2022-09-17T11:52:51.251Z,5.43
2022-09-17T11:55:44.598Z,4.10
2022-09-17T11:58:41.736Z,7.65
2022-09-17T12:01:25.800Z,3.35
2022-09-17T12:04:07.169Z,3.65
2022-09-17T12:07:00.604Z,2.63
2022-09-17T12:09:36.781Z,3.13
2022-09-17T12:12:44.942Z,3.65
2022-09-17T12:15:22.270Z,3.90
2022-09-17T12:18:32.317Z,4.07
2022-09-17T12:21:05.268Z,4.22
2022-09-17T12:23:43.211Z,4.07
2022-09-17T12:26:25.733Z,4.50
2022-09-17T12:29:43.303Z,4.07
2022-09-17T12:32:31.816Z,6.28
2022-09-17T12:36:03.136Z,4.82
2022-09-17T12:39:02.211Z,4.63
2022-09-17T12:42:18.044Z,4.30
2022-09-17T12:45:16.450Z,3.78
2022-09-17T12:48:25.672Z,4.22
2022-09-17T12:51:27.369Z,4.00
2022-09-17T12:54:26.401Z,4.35
2022-09-17T12:57:14.004Z,5.03
2022-09-17T13:00:06.864Z,3.72
2022-09-17T13:03:02.614Z,5.18
2022-09-17T13:05:55.103Z,3.90
2022-09-17T13:09:00.442Z,5.40
2022-09-17T13:11:57.944Z,5.72
2022-09-17T13:14:49.926Z,4.93
2022-09-17T13:18:12.781Z,4.43
2022-09-17T13:21:02.001Z,5.40
2022-09-17T13:23:52.321Z,4.80
2022-09-17T13:26:32.861Z,5.93
2022-09-17T13:29:00.422Z,4.97
2022-09-17T13:31:40.104Z,5.80
2022-09-17T13:34:19.230Z,5.45
2022-09-17T13:36:53.914Z,4.32
2022-09-17T13:39:40.264Z,6.03
2022-09-17T13:42:22.500Z,8.38
2022-09-17T13:45:06.114Z,4.43
2022-09-17T13:47:48.927Z,7.18
2022-09-17T13:50:38.491Z,4.13
2022-09-17T13:53:25.253Z,5.07
2022-09-17T13:55:54.948Z,4.13
2022-09-17T13:58:29.206Z,4.28
2022-09-17T14:01:05.619Z,3.20
2022-09-17T14:03:37.689Z,2.97
2022-09-17T14:06:11.331Z,2.95
2022-09-17T14:08:45.162Z,3.00
2022-09-17T14:11:24.338Z,3.15
2022-09-17T14:14:41.502Z,3.67
2022-09-17T14:17:09.264Z,3.75
2022-09-17T14:19:51.394Z,3.28
2022-09-17T14:22:26.974Z,2.90
2022-09-17T14:24:55.597Z,3.95
2022-09-17T14:27:42.558Z,2.28
2022-09-17T14:30:21.688Z,3.83
2022-09-17T14:33:01.184Z,3.08
2022-09-17T14:35:44.635Z,4.68
2022-09-17T14:38:27.181Z,4.30
2022-09-17T14:41:11.662Z,4.38
2022-09-17T14:44:01.376Z,3.42
2022-09-17T14:46:31.506Z,5.30
2022-09-17T14:49:27.239Z,3.33
2022-09-17T14:51:57.526Z,4.82
2022-09-17T14:54:35.997Z,4.65
2022-09-17T14:57:27.844Z,4.70
2022-09-17T15:00:00.354Z,4.45
2022-09-17T15:02:41.979Z,3.70
2022-09-17T15:05:35.466Z,4.90
2022-09-17T15:08:11.960Z,6.82
2022-09-17T15:11:02.763Z,4.97
2022-09-17T15:13:45.607Z,4.55
2022-09-17T15:16:28.276Z,4.90
2022-09-17T15:18:59.494Z,5.50
2022-09-17T15:21:46.674Z,7.63
2022-09-17T15:24:53.284Z,9.13
2022-09-17T15:27:31.719Z,11.15
2022-09-17T15:30:22.482Z,11.73
2022-09-17T15:33:01.136Z,8.80
2022-09-17T15:35:34.114Z,8.82
2022-09-17T15:38:24.803Z,10.80
2022-09-17T15:40:53.264Z,10.10
2022-09-17T15:43:34.721Z,10.35
2022-09-17T15:46:29.780Z,11.60
2022-09-17T15:49:02.928Z,11.52
2022-09-17T15:51:37.290Z,10.60
2022-09-17T15:54:06.977Z,10.55
2022-09-17T15:56:42.530Z,8.85
2022-09-17T15:59:31.239Z,13.07
2022-09-17T16:02:02.132Z,10.82
2022-09-17T16:04:35.174Z,9.60
2022-09-17T16:07:11.572Z,11.63
2022-09-17T16:09:53.522Z,9.73
2022-09-17T16:12:28.859Z,8.90
2022-09-17T16:15:01.484Z,9.88
2022-09-17T16:17:46.148Z,10.98
2022-09-17T16:20:24.049Z,10.00
2022-09-17T16:22:54.096Z,13.95
2022-09-17T16:25:28.063Z,16.45
2022-09-17T16:28:12.485Z,14.63
2022-09-17T16:30:45.872Z,13.65
2022-09-17T16:33:17.979Z,12.77
2022-09-17T16:35:45.510Z,15.57
2022-09-17T16:38:13.233Z,13.00
2022-09-17T16:40:49.317Z,15.73
2022-09-17T16:43:16.701Z,16.63
2022-09-17T16:45:58.482Z,15.50
2022-09-17T16:48:25.758Z,20.58
2022-09-17T16:50:54.962Z,17.35
2022-09-17T16:53:22.440Z,19.15
2022-09-17T16:55:49.685Z,18.00
2022-09-17T16:58:17.203Z,20.40
2022-09-17T17:00:45.005Z,16.98
2022-09-17T17:03:14.066Z,14.80
2022-09-17T17:05:41.882Z,18.70
2022-09-17T17:08:10.666Z,19.73
2022-09-17T17:10:39.221Z,19.63
2022-09-17T17:13:06.805Z,17.73
2022-09-17T17:15:35.235Z,18.52
2022-09-17T17:18:02.421Z,14.18
2022-09-17T17:20:30.945Z,15.40
2022-09-17T17:22:58.265Z,15.75
2022-09-17T17:25:27.162Z,12.43
2022-09-17T17:27:54.600Z,15.52
2022-09-17T17:30:22.192Z,16.10
2022-09-17T17:32:52.705Z,13.82
2022-09-17T17:35:20.741Z,15.55
2022-09-17T17:37:48.679Z,13.82
2022-09-17T17:40:16.044Z,14.07
2022-09-17T17:42:44.361Z,14.60
2022-09-17T17:45:11.997Z,15.32
2022-09-17T17:47:39.258Z,19.00
2022-09-17T17:50:07.769Z,18.95
2022-09-17T17:52:36.550Z,21.25
2022-09-17T17:55:04.300Z,24.85
2022-09-17T17:57:31.710Z,32.33
2022-09-17T17:59:58.974Z,38.70
2022-09-17T18:02:26.403Z,37.30
2022-09-17T18:04:53.891Z,30.45
2022-09-17T18:07:21.163Z,26.05
2022-09-17T18:09:48.383Z,21.50
2022-09-17T18:12:15.885Z,18.50
2022-09-17T18:14:43.135Z,18.73
2022-09-17T18:17:10.369Z,19.48
2022-09-17T18:19:37.793Z,18.88
2022-09-17T18:22:05.115Z,21.70
2022-09-17T18:24:32.333Z,18.13
2022-09-17T18:26:59.714Z,18.88
2022-09-17T18:29:26.869Z,21.63
2022-09-17T18:31:54.801Z,17.27
2022-09-17T18:34:22.351Z,20.17
2022-09-17T18:36:51.316Z,17.23
2022-09-17T18:42:09.321Z,14.25
2022-09-17T18:44:36.780Z,14.70
2022-09-17T18:47:04.091Z,13.23
2022-09-17T18:49:31.537Z,12.73
2022-09-17T18:51:59.117Z,14.75
2022-09-17T18:54:26.324Z,12.98
2022-09-17T18:56:53.861Z,14.57
2022-09-17T18:59:21.009Z,14.73
2022-09-17T19:01:49.152Z,19.25
2022-09-17T19:04:17.767Z,14.98
2022-09-17T19:06:48.215Z,12.88
2022-09-17T19:09:15.557Z,15.00
2022-09-17T19:11:43.015Z,13.15
2022-09-17T19:14:10.870Z,12.02
2022-09-17T19:16:38.143Z,13.35
2022-09-17T19:19:05.683Z,8.85
2022-09-17T19:21:32.933Z,9.55
2022-09-17T19:24:00.238Z,13.13
2022-09-17T19:26:27.952Z,13.38
2022-09-17T19:28:58.352Z,12.15
2022-09-17T19:31:27.044Z,13.13
2022-09-17T19:33:56.779Z,12.98
2022-09-17T19:36:24.378Z,11.70
2022-09-17T19:38:51.605Z,10.90
2022-09-17T19:41:24.950Z,9.65
2022-09-17T19:43:57.403Z,8.38
2022-09-17T19:46:26.660Z,8.05
2022-09-17T19:48:57.279Z,10.13
2022-09-17T19:51:27.006Z,6.55
2022-09-17T19:53:54.456Z,6.53
2022-09-17T19:56:25.391Z,7.03
2022-09-17T19:58:53.297Z,6.20
2022-09-17T20:01:21.622Z,6.72
2022-09-17T20:03:50.394Z,8.48
2022-09-17T20:06:20.796Z,4.68
2022-09-17T20:08:51.865Z,5.75
2022-09-17T20:11:23.652Z,5.63
2022-09-17T20:14:08.797Z,5.05
2022-09-17T20:16:39.251Z,4.50
2022-09-17T20:19:08.377Z,5.75
2022-09-17T20:21:38.844Z,5.35
2022-09-17T20:24:07.899Z,5.03
2022-09-17T20:26:36.115Z,6.97
2022-09-17T20:29:04.538Z,5.00
2022-09-17T20:31:32.877Z,3.08
2022-09-17T20:34:03.152Z,4.97
2022-09-17T20:36:35.502Z,4.28
2022-09-17T20:39:17.939Z,5.45
2022-09-17T20:41:47.015Z,2.70
2022-09-17T20:44:14.971Z,3.75
2022-09-17T20:46:43.335Z,2.80
2022-09-17T20:49:10.624Z,3.10
2022-09-17T20:51:38.127Z,4.60
2022-09-17T20:54:07.681Z,5.28
2022-09-17T20:56:35.879Z,4.13
2022-09-17T20:59:15.296Z,6.00
2022-09-17T21:01:47.432Z,3.92
2022-09-17T21:04:19.731Z,3.97
2022-09-17T21:06:51.609Z,6.22
2022-09-17T21:09:19.302Z,5.18
2022-09-17T21:11:49.204Z,4.45
2022-09-17T21:14:18.360Z,4.28
2022-09-17T21:16:49.056Z,4.10
2022-09-17T21:19:16.800Z,4.45
2022-09-17T21:21:44.825Z,3.38
2022-09-17T21:24:12.646Z,3.67
2022-09-17T21:26:39.938Z,3.85
2022-09-17T21:29:07.736Z,4.25
2022-09-17T21:31:37.805Z,3.58
2022-09-17T21:34:10.402Z,2.90
2022-09-17T21:36:40.023Z,4.47
2022-09-17T21:39:14.655Z,6.18
2022-09-17T21:41:48.198Z,3.42
2022-09-17T21:44:15.979Z,6.97
2022-09-17T21:46:43.955Z,5.88
2022-09-17T21:49:13.635Z,3.08
2022-09-17T21:51:43.938Z,4.05
2022-09-17T21:54:15.950Z,5.93
2022-09-17T21:56:45.723Z,4.32
2022-09-17T21:59:16.369Z,6.47
2022-09-17T22:01:47.211Z,3.40
2022-09-17T22:04:21.438Z,4.72
2022-09-17T22:06:50.137Z,4.75
2022-09-17T22:09:25.220Z,4.63
2022-09-17T22:11:53.818Z,6.38
2022-09-17T22:14:25.306Z,3.28
2022-09-17T22:16:57.143Z,4.25
2022-09-17T22:19:26.045Z,4.50
2022-09-17T22:21:55.769Z,4.60
2022-09-17T22:24:24.310Z,4.10
2022-09-17T22:26:57.669Z,5.28
2022-09-17T22:29:27.544Z,6.85
2022-09-17T22:31:55.216Z,4.90
2022-09-17T22:34:23.439Z,4.55
2022-09-17T22:36:51.025Z,6.65
2022-09-17T22:39:21.767Z,5.57
2022-09-17T22:41:50.627Z,5.53
2022-09-17T22:44:20.065Z,4.95
2022-09-17T22:46:50.709Z,5.22
2022-09-17T22:49:19.303Z,5.85
2022-09-17T22:51:47.325Z,7.18
2022-09-17T22:54:17.618Z,5.30
2022-09-17T22:56:47.162Z,8.60
2022-09-17T22:59:14.777Z,5.20
2022-09-17T23:01:42.465Z,7.65
2022-09-17T23:04:10.419Z,7.50
2022-09-17T23:06:42.205Z,8.45
2022-09-17T23:09:12.037Z,7.55
2022-09-17T23:11:40.627Z,7.28
2022-09-17T23:14:12.514Z,8.10
2022-09-17T23:16:44.493Z,9.52
2022-09-17T23:19:14.386Z,9.80
2022-09-17T23:21:43.159Z,6.30
2022-09-17T23:24:17.272Z,7.43
2022-09-17T23:26:45.027Z,8.35
2022-09-17T23:29:12.411Z,8.02
2022-09-17T23:31:40.582Z,7.15
2022-09-17T23:34:09.945Z,6.47
2022-09-17T23:36:39.961Z,8.38
2022-09-17T23:39:09.318Z,6.80
2022-09-17T23:41:43.434Z,9.88
2022-09-17T23:44:15.361Z,7.82
2022-09-17T23:46:45.710Z,11.20
2022-09-17T23:49:14.776Z,8.57
2022-09-17T23:51:42.722Z,8.00
2022-09-17T23:54:11.319Z,8.70
2022-09-17T23:56:38.691Z,16.10
2022-09-17T23:59:07.467Z,11.98
